sensor_id;sensor_type;location;lat;lon;timestamp;temperature;humidity
41256;DHT22;26989;45.524;10.938;2022-07-06T00:00:08;25.70;82.80
41256;DHT22;26989;45.524;10.938;2022-07-06T00:02:36;25.70;82.80
41256;DHT22;26989;45.524;10.938;2022-07-06T00:05:04;25.70;83.10
41256;DHT22;26989;45.524;10.938;2022-07-06T00:07:31;25.10;87.70
41256;DHT22;26989;45.524;10.938;2022-07-06T00:09:58;24.50;90.50
41256;DHT22;26989;45.524;10.938;2022-07-06T00:12:25;24.50;90.30
41256;DHT22;26989;45.524;10.938;2022-07-06T00:14:52;24.50;90.30
41256;DHT22;26989;45.524;10.938;2022-07-06T00:17:19;24.50;90.50
41256;DHT22;26989;45.524;10.938;2022-07-06T00:19:46;24.50;90.40
41256;DHT22;26989;45.524;10.938;2022-07-06T00:22:13;24.40;90.80
41256;DHT22;26989;45.524;10.938;2022-07-06T00:24:40;24.30;91.10
41256;DHT22;26989;45.524;10.938;2022-07-06T00:27:07;24.40;91.00
41256;DHT22;26989;45.524;10.938;2022-07-06T00:29:34;24.50;90.90
41256;DHT22;26989;45.524;10.938;2022-07-06T00:32:01;24.60;91.20
41256;DHT22;26989;45.524;10.938;2022-07-06T00:34:28;24.60;91.10
41256;DHT22;26989;45.524;10.938;2022-07-06T00:36:55;24.40;91.80
41256;DHT22;26989;45.524;10.938;2022-07-06T00:39:22;24.40;92.00
41256;DHT22;26989;45.524;10.938;2022-07-06T00:41:50;24.50;92.00
41256;DHT22;26989;45.524;10.938;2022-07-06T00:44:17;24.60;91.60
41256;DHT22;26989;45.524;10.938;2022-07-06T00:46:44;24.60;91.30
41256;DHT22;26989;45.524;10.938;2022-07-06T00:49:11;24.70;91.50
41256;DHT22;26989;45.524;10.938;2022-07-06T00:51:58;25.00;90.80
41256;DHT22;26989;45.524;10.938;2022-07-06T00:54:28;25.10;90.50
41256;DHT22;26989;45.524;10.938;2022-07-06T00:56:57;25.10;90.10
41256;DHT22;26989;45.524;10.938;2022-07-06T00:59:24;24.30;91.10
41256;DHT22;26989;45.524;10.938;2022-07-06T01:01:53;24.00;91.60
41256;DHT22;26989;45.524;10.938;2022-07-06T01:04:20;24.20;90.50
41256;DHT22;26989;45.524;10.938;2022-07-06T01:06:47;24.30;89.20
41256;DHT22;26989;45.524;10.938;2022-07-06T01:09:14;24.60;88.00
41256;DHT22;26989;45.524;10.938;2022-07-06T01:11:41;24.60;86.20
41256;DHT22;26989;45.524;10.938;2022-07-06T01:14:08;24.20;89.50
41256;DHT22;26989;45.524;10.938;2022-07-06T01:16:35;23.80;90.30
41256;DHT22;26989;45.524;10.938;2022-07-06T01:19:03;23.70;90.70
41256;DHT22;26989;45.524;10.938;2022-07-06T01:21:30;23.50;90.10
41256;DHT22;26989;45.524;10.938;2022-07-06T01:23:57;23.40;90.30
41256;DHT22;26989;45.524;10.938;2022-07-06T01:26:24;23.00;91.10
41256;DHT22;26989;45.524;10.938;2022-07-06T01:28:51;22.80;92.10
41256;DHT22;26989;45.524;10.938;2022-07-06T01:31:24;22.70;91.80
41256;DHT22;26989;45.524;10.938;2022-07-06T01:33:53;22.60;91.70
41256;DHT22;26989;45.524;10.938;2022-07-06T01:36:20;22.40;92.10
41256;DHT22;26989;45.524;10.938;2022-07-06T01:41:16;22.60;91.80
41256;DHT22;26989;45.524;10.938;2022-07-06T01:43:43;22.70;91.60
41256;DHT22;26989;45.524;10.938;2022-07-06T01:46:10;23.00;91.30
41256;DHT22;26989;45.524;10.938;2022-07-06T01:48:38;23.00;91.50
41256;DHT22;26989;45.524;10.938;2022-07-06T01:51:05;23.20;91.80
41256;DHT22;26989;45.524;10.938;2022-07-06T01:53:32;23.40;91.90
41256;DHT22;26989;45.524;10.938;2022-07-06T01:55:59;23.70;90.90
41256;DHT22;26989;45.524;10.938;2022-07-06T01:58:26;24.00;90.80
41256;DHT22;26989;45.524;10.938;2022-07-06T02:00:53;24.00;91.30
41256;DHT22;26989;45.524;10.938;2022-07-06T02:03:20;24.00;91.50
41256;DHT22;26989;45.524;10.938;2022-07-06T02:05:47;24.10;91.60
41256;DHT22;26989;45.524;10.938;2022-07-06T02:08:14;24.20;91.50
41256;DHT22;26989;45.524;10.938;2022-07-06T02:10:41;24.20;91.50
41256;DHT22;26989;45.524;10.938;2022-07-06T02:13:08;24.20;91.70
41256;DHT22;26989;45.524;10.938;2022-07-06T02:15:34;24.30;91.60
41256;DHT22;26989;45.524;10.938;2022-07-06T02:18:01;24.40;91.50
41256;DHT22;26989;45.524;10.938;2022-07-06T02:20:28;24.40;91.40
41256;DHT22;26989;45.524;10.938;2022-07-06T02:22:55;24.50;91.40
41256;DHT22;26989;45.524;10.938;2022-07-06T02:25:23;24.60;91.30
41256;DHT22;26989;45.524;10.938;2022-07-06T02:27:50;24.60;91.30
41256;DHT22;26989;45.524;10.938;2022-07-06T02:30:17;24.50;91.40
41256;DHT22;26989;45.524;10.938;2022-07-06T02:32:44;24.50;90.30
41256;DHT22;26989;45.524;10.938;2022-07-06T02:35:11;24.70;90.10
41256;DHT22;26989;45.524;10.938;2022-07-06T02:37:38;24.50;91.90
41256;DHT22;26989;45.524;10.938;2022-07-06T02:40:05;24.20;92.80
41256;DHT22;26989;45.524;10.938;2022-07-06T02:42:32;23.80;94.40
41256;DHT22;26989;45.524;10.938;2022-07-06T02:44:59;23.50;96.00
41256;DHT22;26989;45.524;10.938;2022-07-06T02:47:26;23.40;96.40
41256;DHT22;26989;45.524;10.938;2022-07-06T02:49:53;23.90;95.10
41256;DHT22;26989;45.524;10.938;2022-07-06T02:52:20;24.00;94.30
41256;DHT22;26989;45.524;10.938;2022-07-06T02:54:47;24.10;94.40
41256;DHT22;26989;45.524;10.938;2022-07-06T02:57:18;24.00;94.60
41256;DHT22;26989;45.524;10.938;2022-07-06T02:59:45;24.10;94.70
41256;DHT22;26989;45.524;10.938;2022-07-06T03:02:12;24.10;94.30
41256;DHT22;26989;45.524;10.938;2022-07-06T03:04:39;24.10;94.40
41256;DHT22;26989;45.524;10.938;2022-07-06T03:07:06;24.10;94.10
41256;DHT22;26989;45.524;10.938;2022-07-06T03:09:33;24.20;93.80
41256;DHT22;26989;45.524;10.938;2022-07-06T03:12:00;24.30;93.70
41256;DHT22;26989;45.524;10.938;2022-07-06T03:14:27;24.20;93.80
41256;DHT22;26989;45.524;10.938;2022-07-06T03:16:54;24.30;93.60
41256;DHT22;26989;45.524;10.938;2022-07-06T03:19:21;24.20;93.20
41256;DHT22;26989;45.524;10.938;2022-07-06T03:21:48;24.10;94.20
41256;DHT22;26989;45.524;10.938;2022-07-06T03:24:15;24.00;94.40
41256;DHT22;26989;45.524;10.938;2022-07-06T03:26:42;24.00;93.80
41256;DHT22;26989;45.524;10.938;2022-07-06T03:29:09;24.10;94.00
41256;DHT22;26989;45.524;10.938;2022-07-06T03:31:35;24.00;94.00
41256;DHT22;26989;45.524;10.938;2022-07-06T03:34:03;24.20;92.90
41256;DHT22;26989;45.524;10.938;2022-07-06T03:36:29;24.30;92.00
41256;DHT22;26989;45.524;10.938;2022-07-06T03:39:04;24.50;90.80
41256;DHT22;26989;45.524;10.938;2022-07-06T03:41:31;24.50;90.80
41256;DHT22;26989;45.524;10.938;2022-07-06T03:43:59;24.50;90.80
41256;DHT22;26989;45.524;10.938;2022-07-06T03:46:26;24.50;90.50
41256;DHT22;26989;45.524;10.938;2022-07-06T03:48:53;24.40;90.50
41256;DHT22;26989;45.524;10.938;2022-07-06T03:51:20;24.40;90.60
41256;DHT22;26989;45.524;10.938;2022-07-06T03:53:47;24.40;90.70
41256;DHT22;26989;45.524;10.938;2022-07-06T03:56:13;24.50;90.70
41256;DHT22;26989;45.524;10.938;2022-07-06T03:58:57;24.50;90.50
41256;DHT22;26989;45.524;10.938;2022-07-06T04:01:24;24.50;90.50
41256;DHT22;26989;45.524;10.938;2022-07-06T04:03:51;24.30;91.20
41256;DHT22;26989;45.524;10.938;2022-07-06T04:06:19;24.30;91.40
41256;DHT22;26989;45.524;10.938;2022-07-06T04:08:46;24.30;90.80
41256;DHT22;26989;45.524;10.938;2022-07-06T04:11:12;24.40;90.60
41256;DHT22;26989;45.524;10.938;2022-07-06T04:13:40;24.30;90.90
41256;DHT22;26989;45.524;10.938;2022-07-06T04:16:07;24.40;91.00
41256;DHT22;26989;45.524;10.938;2022-07-06T04:18:34;24.40;90.70
41256;DHT22;26989;45.524;10.938;2022-07-06T04:21:01;24.40;90.60
41256;DHT22;26989;45.524;10.938;2022-07-06T04:23:29;24.50;90.20
41256;DHT22;26989;45.524;10.938;2022-07-06T04:25:56;24.60;90.00
41256;DHT22;26989;45.524;10.938;2022-07-06T04:28:23;24.70;88.60
41256;DHT22;26989;45.524;10.938;2022-07-06T04:30:51;24.50;90.60
41256;DHT22;26989;45.524;10.938;2022-07-06T04:33:18;24.30;91.40
41256;DHT22;26989;45.524;10.938;2022-07-06T04:35:45;24.10;91.70
41256;DHT22;26989;45.524;10.938;2022-07-06T04:38:11;24.50;90.40
41256;DHT22;26989;45.524;10.938;2022-07-06T04:40:38;25.30;89.20
41256;DHT22;26989;45.524;10.938;2022-07-06T04:43:06;26.90;86.70
41256;DHT22;26989;45.524;10.938;2022-07-06T04:45:33;26.90;84.30
41256;DHT22;26989;45.524;10.938;2022-07-06T04:48:00;27.50;82.40
41256;DHT22;26989;45.524;10.938;2022-07-06T04:50:26;28.50;80.80
41256;DHT22;26989;45.524;10.938;2022-07-06T04:52:53;29.40;80.20
41256;DHT22;26989;45.524;10.938;2022-07-06T04:55:20;29.30;79.20
41256;DHT22;26989;45.524;10.938;2022-07-06T04:57:47;28.60;79.90
41256;DHT22;26989;45.524;10.938;2022-07-06T05:00:14;30.30;78.80
41256;DHT22;26989;45.524;10.938;2022-07-06T05:02:41;31.20;75.80
41256;DHT22;26989;45.524;10.938;2022-07-06T05:05:09;32.30;76.00
41256;DHT22;26989;45.524;10.938;2022-07-06T05:07:36;32.90;73.90
41256;DHT22;26989;45.524;10.938;2022-07-06T05:10:11;32.80;73.40
41256;DHT22;26989;45.524;10.938;2022-07-06T05:12:38;34.90;70.60
41256;DHT22;26989;45.524;10.938;2022-07-06T05:15:05;36.30;68.30
41256;DHT22;26989;45.524;10.938;2022-07-06T05:17:32;37.90;67.40
41256;DHT22;26989;45.524;10.938;2022-07-06T05:19:59;39.40;65.90
41256;DHT22;26989;45.524;10.938;2022-07-06T05:22:26;39.90;63.60
41256;DHT22;26989;45.524;10.938;2022-07-06T05:24:53;36.00;65.70
41256;DHT22;26989;45.524;10.938;2022-07-06T05:27:20;34.40;67.80
41256;DHT22;26989;45.524;10.938;2022-07-06T05:29:47;33.70;69.50
41256;DHT22;26989;45.524;10.938;2022-07-06T05:32:14;34.40;69.50
41256;DHT22;26989;45.524;10.938;2022-07-06T05:34:40;35.20;71.10
41256;DHT22;26989;45.524;10.938;2022-07-06T05:37:07;36.10;69.90
41256;DHT22;26989;45.524;10.938;2022-07-06T05:39:34;36.70;69.10
41256;DHT22;26989;45.524;10.938;2022-07-06T05:42:01;37.60;69.40
41256;DHT22;26989;45.524;10.938;2022-07-06T05:44:28;37.90;68.60
41256;DHT22;26989;45.524;10.938;2022-07-06T05:46:55;33.70;72.50
41256;DHT22;26989;45.524;10.938;2022-07-06T05:49:42;31.70;76.40
41256;DHT22;26989;45.524;10.938;2022-07-06T05:52:28;30.30;79.50
41256;DHT22;26989;45.524;10.938;2022-07-06T05:54:55;29.60;80.90
41256;DHT22;26989;45.524;10.938;2022-07-06T05:57:21;30.00;82.50
41256;DHT22;26989;45.524;10.938;2022-07-06T05:59:48;32.60;77.40
41256;DHT22;26989;45.524;10.938;2022-07-06T06:02:15;35.30;73.80
41256;DHT22;26989;45.524;10.938;2022-07-06T06:04:43;37.30;71.20
41256;DHT22;26989;45.524;10.938;2022-07-06T06:07:09;38.70;68.40
41256;DHT22;26989;45.524;10.938;2022-07-06T06:09:36;37.90;67.80
41256;DHT22;26989;45.524;10.938;2022-07-06T06:12:03;36.30;69.80
41256;DHT22;26989;45.524;10.938;2022-07-06T06:14:31;35.90;71.40
41256;DHT22;26989;45.524;10.938;2022-07-06T06:16:58;31.30;74.60
41256;DHT22;26989;45.524;10.938;2022-07-06T06:19:26;34.50;73.70
41256;DHT22;26989;45.524;10.938;2022-07-06T06:21:53;36.80;70.60
41256;DHT22;26989;45.524;10.938;2022-07-06T06:24:20;36.40;70.00
41256;DHT22;26989;45.524;10.938;2022-07-06T06:26:47;37.50;68.30
41256;DHT22;26989;45.524;10.938;2022-07-06T06:29:14;38.00;68.20
41256;DHT22;26989;45.524;10.938;2022-07-06T06:31:41;39.20;66.70
41256;DHT22;26989;45.524;10.938;2022-07-06T06:34:08;40.30;65.80
41256;DHT22;26989;45.524;10.938;2022-07-06T06:36:34;35.10;67.40
41256;DHT22;26989;45.524;10.938;2022-07-06T06:39:01;33.70;72.80
41256;DHT22;26989;45.524;10.938;2022-07-06T06:41:29;36.90;70.00
41256;DHT22;26989;45.524;10.938;2022-07-06T06:43:56;37.50;68.40
41256;DHT22;26989;45.524;10.938;2022-07-06T06:46:22;35.70;68.90
41256;DHT22;26989;45.524;10.938;2022-07-06T06:48:50;35.40;69.80
41256;DHT22;26989;45.524;10.938;2022-07-06T06:51:16;34.00;72.60
41256;DHT22;26989;45.524;10.938;2022-07-06T06:53:43;32.40;74.70
41256;DHT22;26989;45.524;10.938;2022-07-06T06:56:10;33.80;74.40
41256;DHT22;26989;45.524;10.938;2022-07-06T06:58:37;35.10;73.10
41256;DHT22;26989;45.524;10.938;2022-07-06T07:01:24;36.20;69.80
41256;DHT22;26989;45.524;10.938;2022-07-06T07:03:53;38.10;68.40
41256;DHT22;26989;45.524;10.938;2022-07-06T07:06:21;38.20;67.60
41256;DHT22;26989;45.524;10.938;2022-07-06T07:08:48;34.30;71.40
41256;DHT22;26989;45.524;10.938;2022-07-06T07:11:15;33.10;71.30
41256;DHT22;26989;45.524;10.938;2022-07-06T07:13:42;31.50;72.80
41256;DHT22;26989;45.524;10.938;2022-07-06T07:16:09;30.70;75.70
41256;DHT22;26989;45.524;10.938;2022-07-06T07:18:36;30.80;75.60
41256;DHT22;26989;45.524;10.938;2022-07-06T07:21:03;30.60;75.00
41256;DHT22;26989;45.524;10.938;2022-07-06T07:23:30;30.30;75.90
41256;DHT22;26989;45.524;10.938;2022-07-06T07:25:57;30.40;76.90
41256;DHT22;26989;45.524;10.938;2022-07-06T07:28:24;30.30;76.30
41256;DHT22;26989;45.524;10.938;2022-07-06T07:30:51;30.10;76.50
41256;DHT22;26989;45.524;10.938;2022-07-06T07:33:19;30.10;76.90
41256;DHT22;26989;45.524;10.938;2022-07-06T07:35:46;30.10;76.70
41256;DHT22;26989;45.524;10.938;2022-07-06T07:38:13;30.20;76.00
41256;DHT22;26989;45.524;10.938;2022-07-06T07:40:40;30.10;76.30
41256;DHT22;26989;45.524;10.938;2022-07-06T07:43:06;30.10;75.90
41256;DHT22;26989;45.524;10.938;2022-07-06T07:45:33;30.40;75.00
41256;DHT22;26989;45.524;10.938;2022-07-06T07:48:00;30.20;74.60
41256;DHT22;26989;45.524;10.938;2022-07-06T07:50:27;29.80;75.20
41256;DHT22;26989;45.524;10.938;2022-07-06T07:52:56;29.60;76.10
41256;DHT22;26989;45.524;10.938;2022-07-06T07:55:23;30.00;76.60
41256;DHT22;26989;45.524;10.938;2022-07-06T07:58:08;30.50;76.30
41256;DHT22;26989;45.524;10.938;2022-07-06T08:00:35;30.40;75.80
41256;DHT22;26989;45.524;10.938;2022-07-06T08:03:02;30.40;75.30
41256;DHT22;26989;45.524;10.938;2022-07-06T08:05:29;30.50;75.80
41256;DHT22;26989;45.524;10.938;2022-07-06T08:07:56;29.80;75.70
41256;DHT22;26989;45.524;10.938;2022-07-06T08:10:23;29.90;76.20
41256;DHT22;26989;45.524;10.938;2022-07-06T08:12:50;29.60;75.80
41256;DHT22;26989;45.524;10.938;2022-07-06T08:15:17;29.80;76.70
41256;DHT22;26989;45.524;10.938;2022-07-06T08:17:44;30.20;76.60
41256;DHT22;26989;45.524;10.938;2022-07-06T08:20:12;30.40;76.90
41256;DHT22;26989;45.524;10.938;2022-07-06T08:22:40;30.70;75.70
41256;DHT22;26989;45.524;10.938;2022-07-06T08:25:08;30.50;75.00
41256;DHT22;26989;45.524;10.938;2022-07-06T08:27:35;30.50;75.80
41256;DHT22;26989;45.524;10.938;2022-07-06T08:30:05;30.40;75.80
41256;DHT22;26989;45.524;10.938;2022-07-06T08:32:32;30.50;75.90
41256;DHT22;26989;45.524;10.938;2022-07-06T08:35:19;30.70;75.30
41256;DHT22;26989;45.524;10.938;2022-07-06T08:37:46;30.40;74.10
41256;DHT22;26989;45.524;10.938;2022-07-06T08:40:13;30.70;75.20
41256;DHT22;26989;45.524;10.938;2022-07-06T08:42:41;30.60;74.80
41256;DHT22;26989;45.524;10.938;2022-07-06T08:45:09;30.70;76.90
41256;DHT22;26989;45.524;10.938;2022-07-06T08:47:36;30.70;75.60
41256;DHT22;26989;45.524;10.938;2022-07-06T08:50:04;30.60;75.70
41256;DHT22;26989;45.524;10.938;2022-07-06T08:52:32;30.80;75.60
41256;DHT22;26989;45.524;10.938;2022-07-06T08:55:00;30.70;75.40
41256;DHT22;26989;45.524;10.938;2022-07-06T08:57:28;30.90;76.10
41256;DHT22;26989;45.524;10.938;2022-07-06T08:59:55;31.40;74.30
41256;DHT22;26989;45.524;10.938;2022-07-06T09:02:25;31.40;74.50
41256;DHT22;26989;45.524;10.938;2022-07-06T09:04:55;31.40;75.20
41256;DHT22;26989;45.524;10.938;2022-07-06T09:07:28;31.60;74.30
41256;DHT22;26989;45.524;10.938;2022-07-06T09:10:17;31.40;74.20
41256;DHT22;26989;45.524;10.938;2022-07-06T09:12:44;30.80;75.60
41256;DHT22;26989;45.524;10.938;2022-07-06T09:15:11;31.00;74.00
41256;DHT22;26989;45.524;10.938;2022-07-06T09:17:39;31.20;74.00
41256;DHT22;26989;45.524;10.938;2022-07-06T09:20:08;31.40;73.60
41256;DHT22;26989;45.524;10.938;2022-07-06T09:22:36;31.50;73.30
41256;DHT22;26989;45.524;10.938;2022-07-06T09:25:08;31.70;72.80
41256;DHT22;26989;45.524;10.938;2022-07-06T09:27:40;31.80;72.10
41256;DHT22;26989;45.524;10.938;2022-07-06T09:30:09;31.80;71.50
41256;DHT22;26989;45.524;10.938;2022-07-06T09:32:41;31.80;71.60
41256;DHT22;26989;45.524;10.938;2022-07-06T09:37:46;31.60;73.20
41256;DHT22;26989;45.524;10.938;2022-07-06T09:40:18;31.90;71.90
41256;DHT22;26989;45.524;10.938;2022-07-06T09:42:45;31.80;72.60
41256;DHT22;26989;45.524;10.938;2022-07-06T09:45:12;31.90;71.80
41256;DHT22;26989;45.524;10.938;2022-07-06T09:47:47;31.90;72.70
41256;DHT22;26989;45.524;10.938;2022-07-06T09:50:15;32.00;71.60
41256;DHT22;26989;45.524;10.938;2022-07-06T09:52:53;31.80;72.50
41256;DHT22;26989;45.524;10.938;2022-07-06T09:55:22;31.00;72.20
41256;DHT22;26989;45.524;10.938;2022-07-06T09:57:52;31.40;72.40
41256;DHT22;26989;45.524;10.938;2022-07-06T10:00:21;31.60;71.10
41256;DHT22;26989;45.524;10.938;2022-07-06T10:02:48;31.70;71.00
41256;DHT22;26989;45.524;10.938;2022-07-06T10:05:22;31.80;70.60
41256;DHT22;26989;45.524;10.938;2022-07-06T10:07:58;31.60;70.30
41256;DHT22;26989;45.524;10.938;2022-07-06T10:10:28;31.30;70.10
41256;DHT22;26989;45.524;10.938;2022-07-06T10:12:56;31.60;71.00
41256;DHT22;26989;45.524;10.938;2022-07-06T10:15:25;31.80;69.70
41256;DHT22;26989;45.524;10.938;2022-07-06T10:17:54;31.50;70.60
41256;DHT22;26989;45.524;10.938;2022-07-06T10:20:22;31.20;71.20
41256;DHT22;26989;45.524;10.938;2022-07-06T10:22:49;31.20;70.50
41256;DHT22;26989;45.524;10.938;2022-07-06T10:25:17;30.40;71.20
41256;DHT22;26989;45.524;10.938;2022-07-06T10:27:46;31.10;71.20
41256;DHT22;26989;45.524;10.938;2022-07-06T10:30:17;30.50;70.60
41256;DHT22;26989;45.524;10.938;2022-07-06T10:32:46;30.20;72.40
41256;DHT22;26989;45.524;10.938;2022-07-06T10:35:14;30.70;71.80
41256;DHT22;26989;45.524;10.938;2022-07-06T10:37:41;31.40;71.50
41256;DHT22;26989;45.524;10.938;2022-07-06T10:40:13;31.50;72.10
41256;DHT22;26989;45.524;10.938;2022-07-06T10:43:00;31.70;70.60
41256;DHT22;26989;45.524;10.938;2022-07-06T10:50:41;32.20;69.00
41256;DHT22;26989;45.524;10.938;2022-07-06T10:53:14;32.40;68.40
41256;DHT22;26989;45.524;10.938;2022-07-06T10:55:44;32.40;69.00
41256;DHT22;26989;45.524;10.938;2022-07-06T10:58:13;32.50;69.10
41256;DHT22;26989;45.524;10.938;2022-07-06T11:00:53;32.70;69.20
41256;DHT22;26989;45.524;10.938;2022-07-06T11:03:42;32.90;68.50
41256;DHT22;26989;45.524;10.938;2022-07-06T11:06:12;32.90;68.40
41256;DHT22;26989;45.524;10.938;2022-07-06T11:08:56;33.10;68.00
41256;DHT22;26989;45.524;10.938;2022-07-06T11:14:13;33.10;68.30
41256;DHT22;26989;45.524;10.938;2022-07-06T11:19:17;33.10;68.10
41256;DHT22;26989;45.524;10.938;2022-07-06T11:21:46;33.20;68.50
41256;DHT22;26989;45.524;10.938;2022-07-06T11:24:15;33.20;68.00
41256;DHT22;26989;45.524;10.938;2022-07-06T11:26:47;33.10;68.30
41256;DHT22;26989;45.524;10.938;2022-07-06T11:29:16;33.30;68.30
41256;DHT22;26989;45.524;10.938;2022-07-06T11:31:47;33.30;68.60
41256;DHT22;26989;45.524;10.938;2022-07-06T11:34:19;33.30;68.70
41256;DHT22;26989;45.524;10.938;2022-07-06T11:36:46;33.30;68.50
41256;DHT22;26989;45.524;10.938;2022-07-06T11:39:15;33.20;67.90
41256;DHT22;26989;45.524;10.938;2022-07-06T11:41:42;32.90;68.80
41256;DHT22;26989;45.524;10.938;2022-07-06T11:44:17;32.40;68.50
41256;DHT22;26989;45.524;10.938;2022-07-06T11:46:44;32.60;69.40
41256;DHT22;26989;45.524;10.938;2022-07-06T11:49:11;32.80;69.40
41256;DHT22;26989;45.524;10.938;2022-07-06T11:51:39;32.80;68.80
41256;DHT22;26989;45.524;10.938;2022-07-06T11:54:18;32.90;68.90
41256;DHT22;26989;45.524;10.938;2022-07-06T11:56:57;33.10;68.80
41256;DHT22;26989;45.524;10.938;2022-07-06T12:02:02;33.30;67.90
41256;DHT22;26989;45.524;10.938;2022-07-06T12:04:31;33.20;68.50
41256;DHT22;26989;45.524;10.938;2022-07-06T12:07:10;33.40;67.70
41256;DHT22;26989;45.524;10.938;2022-07-06T12:09:40;33.30;68.40
41256;DHT22;26989;45.524;10.938;2022-07-06T12:12:08;33.50;67.50
41256;DHT22;26989;45.524;10.938;2022-07-06T12:14:37;33.10;68.00
41256;DHT22;26989;45.524;10.938;2022-07-06T12:19:33;33.40;68.10
41256;DHT22;26989;45.524;10.938;2022-07-06T12:22:01;33.70;67.90
41256;DHT22;26989;45.524;10.938;2022-07-06T12:24:31;33.70;67.60
41256;DHT22;26989;45.524;10.938;2022-07-06T12:27:18;33.70;67.40
41256;DHT22;26989;45.524;10.938;2022-07-06T12:29:47;33.80;67.50
41256;DHT22;26989;45.524;10.938;2022-07-06T12:32:19;33.60;67.60
41256;DHT22;26989;45.524;10.938;2022-07-06T12:34:46;33.70;67.60
41256;DHT22;26989;45.524;10.938;2022-07-06T12:37:13;33.70;67.60
41256;DHT22;26989;45.524;10.938;2022-07-06T12:39:45;33.50;67.20
41256;DHT22;26989;45.524;10.938;2022-07-06T12:42:16;33.20;67.10
41256;DHT22;26989;45.524;10.938;2022-07-06T12:44:50;33.20;68.00
41256;DHT22;26989;45.524;10.938;2022-07-06T12:47:19;33.10;67.40
41256;DHT22;26989;45.524;10.938;2022-07-06T12:49:48;33.30;68.00
41256;DHT22;26989;45.524;10.938;2022-07-06T12:52:16;33.50;67.30
41256;DHT22;26989;45.524;10.938;2022-07-06T12:57:21;33.60;67.80
41256;DHT22;26989;45.524;10.938;2022-07-06T13:02:30;33.80;67.70
41256;DHT22;26989;45.524;10.938;2022-07-06T13:05:17;33.70;67.60
41256;DHT22;26989;45.524;10.938;2022-07-06T13:07:46;33.80;67.20
41256;DHT22;26989;45.524;10.938;2022-07-06T13:10:16;33.90;66.90
41256;DHT22;26989;45.524;10.938;2022-07-06T13:12:43;34.00;67.20
41256;DHT22;26989;45.524;10.938;2022-07-06T13:15:10;33.90;67.30
41256;DHT22;26989;45.524;10.938;2022-07-06T13:17:38;33.90;67.30
41256;DHT22;26989;45.524;10.938;2022-07-06T13:20:06;33.80;66.60
41256;DHT22;26989;45.524;10.938;2022-07-06T13:22:35;34.20;66.50
41256;DHT22;26989;45.524;10.938;2022-07-06T13:25:02;34.40;66.60
41256;DHT22;26989;45.524;10.938;2022-07-06T13:27:29;34.50;66.50
41256;DHT22;26989;45.524;10.938;2022-07-06T13:29:57;34.50;66.40
41256;DHT22;26989;45.524;10.938;2022-07-06T13:32:24;34.70;65.70
41256;DHT22;26989;45.524;10.938;2022-07-06T13:34:51;34.80;65.30
41256;DHT22;26989;45.524;10.938;2022-07-06T13:37:19;35.00;65.80
41256;DHT22;26989;45.524;10.938;2022-07-06T13:39:46;35.30;64.90
41256;DHT22;26989;45.524;10.938;2022-07-06T13:42:13;34.30;64.80
41256;DHT22;26989;45.524;10.938;2022-07-06T13:44:40;34.00;66.30
41256;DHT22;26989;45.524;10.938;2022-07-06T13:47:07;34.20;66.40
41256;DHT22;26989;45.524;10.938;2022-07-06T13:49:34;34.30;67.30
41256;DHT22;26989;45.524;10.938;2022-07-06T13:52:01;34.80;67.10
41256;DHT22;26989;45.524;10.938;2022-07-06T13:54:31;35.20;66.40
41256;DHT22;26989;45.524;10.938;2022-07-06T13:57:02;35.30;65.90
41256;DHT22;26989;45.524;10.938;2022-07-06T13:59:30;35.40;65.90
41256;DHT22;26989;45.524;10.938;2022-07-06T14:01:58;35.00;66.10
41256;DHT22;26989;45.524;10.938;2022-07-06T14:04:26;34.90;65.60
41256;DHT22;26989;45.524;10.938;2022-07-06T14:06:53;34.80;66.30
41256;DHT22;26989;45.524;10.938;2022-07-06T14:09:20;35.20;65.40
41256;DHT22;26989;45.524;10.938;2022-07-06T14:11:48;35.30;64.90
41256;DHT22;26989;45.524;10.938;2022-07-06T14:14:17;34.60;66.30
41256;DHT22;26989;45.524;10.938;2022-07-06T14:16:44;34.90;66.70
41256;DHT22;26989;45.524;10.938;2022-07-06T14:19:11;35.30;66.40
41256;DHT22;26989;45.524;10.938;2022-07-06T14:21:46;35.50;65.20
41256;DHT22;26989;45.524;10.938;2022-07-06T14:24:13;35.40;65.10
41256;DHT22;26989;45.524;10.938;2022-07-06T14:26:40;35.00;66.00
41256;DHT22;26989;45.524;10.938;2022-07-06T14:29:07;35.30;66.30
41256;DHT22;26989;45.524;10.938;2022-07-06T14:31:34;35.40;65.80
41256;DHT22;26989;45.524;10.938;2022-07-06T14:34:01;35.40;66.00
41256;DHT22;26989;45.524;10.938;2022-07-06T14:36:28;35.50;65.80
41256;DHT22;26989;45.524;10.938;2022-07-06T14:38:55;35.70;65.10
41256;DHT22;26989;45.524;10.938;2022-07-06T14:41:22;35.60;64.20
41256;DHT22;26989;45.524;10.938;2022-07-06T14:43:49;35.50;64.90
41256;DHT22;26989;45.524;10.938;2022-07-06T14:46:16;35.70;65.40
41256;DHT22;26989;45.524;10.938;2022-07-06T14:48:43;35.90;64.60
41256;DHT22;26989;45.524;10.938;2022-07-06T14:51:10;35.60;65.10
41256;DHT22;26989;45.524;10.938;2022-07-06T14:53:37;35.70;65.70
41256;DHT22;26989;45.524;10.938;2022-07-06T14:56:06;35.80;65.30
41256;DHT22;26989;45.524;10.938;2022-07-06T14:58:33;36.00;64.80
41256;DHT22;26989;45.524;10.938;2022-07-06T15:01:01;35.80;65.10
41256;DHT22;26989;45.524;10.938;2022-07-06T15:03:28;35.80;64.70
41256;DHT22;26989;45.524;10.938;2022-07-06T15:05:57;35.60;64.10
41256;DHT22;26989;45.524;10.938;2022-07-06T15:08:24;35.50;63.40
41256;DHT22;26989;45.524;10.938;2022-07-06T15:10:51;35.70;64.50
41256;DHT22;26989;45.524;10.938;2022-07-06T15:13:18;35.90;64.20
41256;DHT22;26989;45.524;10.938;2022-07-06T15:15:45;36.20;63.10
41256;DHT22;26989;45.524;10.938;2022-07-06T15:18:27;36.30;64.00
41256;DHT22;26989;45.524;10.938;2022-07-06T15:20:55;36.40;64.40
41256;DHT22;26989;45.524;10.938;2022-07-06T15:23:22;36.40;64.50
41256;DHT22;26989;45.524;10.938;2022-07-06T15:25:50;36.30;64.10
41256;DHT22;26989;45.524;10.938;2022-07-06T15:28:22;36.30;63.90
41256;DHT22;26989;45.524;10.938;2022-07-06T15:30:52;36.30;64.00
41256;DHT22;26989;45.524;10.938;2022-07-06T15:33:19;36.10;64.10
41256;DHT22;26989;45.524;10.938;2022-07-06T15:35:46;36.00;64.60
41256;DHT22;26989;45.524;10.938;2022-07-06T15:38:14;35.70;64.70
41256;DHT22;26989;45.524;10.938;2022-07-06T15:40:44;36.10;65.20
41256;DHT22;26989;45.524;10.938;2022-07-06T15:43:15;35.80;65.10
41256;DHT22;26989;45.524;10.938;2022-07-06T15:45:44;35.90;65.30
41256;DHT22;26989;45.524;10.938;2022-07-06T15:48:11;35.90;65.30